createdAt,value
2018-03-31T00:02:02.244Z,20.00
2018-03-31T00:04:30.143Z,20.00
2018-03-31T00:06:57.283Z,20.00
2018-03-31T00:09:24.599Z,20.00
2018-03-31T00:11:51.716Z,20.00
2018-03-31T00:14:19.111Z,19.90
2018-03-31T00:16:46.400Z,20.00
2018-03-31T00:19:13.616Z,20.00
2018-03-31T00:21:41.591Z,20.00
2018-03-31T00:24:09.594Z,19.90
2018-03-31T00:26:36.787Z,19.90
2018-03-31T00:29:04.980Z,19.90
2018-03-31T00:31:32.907Z,19.90
2018-03-31T00:34:00.134Z,19.90
2018-03-31T00:36:27.307Z,19.90
2018-03-31T00:38:54.601Z,19.90
2018-03-31T00:41:21.774Z,19.90
2018-03-31T00:43:49.883Z,19.90
2018-03-31T00:46:17.300Z,19.90
2018-03-31T00:48:45.187Z,19.90
2018-03-31T00:51:12.363Z,19.90
2018-03-31T00:53:39.624Z,19.90
2018-03-31T00:56:07.300Z,19.90
2018-03-31T00:58:34.449Z,19.80
2018-03-31T01:01:01.596Z,19.80
2018-03-31T01:03:28.658Z,19.80
2018-03-31T01:05:56.787Z,19.90
2018-03-31T01:08:23.790Z,19.80
2018-03-31T01:10:51.668Z,19.80
2018-03-31T01:13:18.888Z,19.80
2018-03-31T01:15:46.022Z,19.80
2018-03-31T01:18:13.239Z,19.80
2018-03-31T01:20:40.412Z,19.80
2018-03-31T01:23:07.784Z,19.80
2018-03-31T01:25:34.996Z,19.80
2018-03-31T01:28:02.207Z,19.80
2018-03-31T01:30:30.112Z,19.80
2018-03-31T01:32:58.018Z,19.80
2018-03-31T01:35:25.212Z,19.80
2018-03-31T01:37:52.382Z,19.80
2018-03-31T01:40:19.544Z,19.80
2018-03-31T01:42:46.776Z,19.80
2018-03-31T01:45:13.919Z,19.80
2018-03-31T01:47:41.082Z,19.80
2018-03-31T01:50:08.165Z,19.80
2018-03-31T01:52:35.410Z,19.80
2018-03-31T01:55:03.074Z,19.80
2018-03-31T01:57:30.303Z,19.70
2018-03-31T01:59:57.478Z,19.70
2018-03-31T02:02:24.544Z,19.80
2018-03-31T02:04:51.779Z,19.80
2018-03-31T02:07:19.008Z,19.80
2018-03-31T02:09:46.169Z,19.70
2018-03-31T02:12:13.223Z,19.70
2018-03-31T02:14:40.559Z,19.70
2018-03-31T02:17:07.811Z,19.70
2018-03-31T02:19:34.968Z,19.70
2018-03-31T02:22:02.412Z,19.70
2018-03-31T02:24:29.459Z,19.70
2018-03-31T02:26:56.755Z,19.70
2018-03-31T02:29:24.680Z,19.70
2018-03-31T02:31:52.016Z,19.70
2018-03-31T02:34:19.171Z,19.70
2018-03-31T02:36:46.366Z,19.70
2018-03-31T02:39:14.504Z,19.70
2018-03-31T02:41:41.744Z,19.70
2018-03-31T02:44:09.197Z,19.70
2018-03-31T02:46:36.379Z,19.70
2018-03-31T02:49:03.649Z,19.70
2018-03-31T02:51:30.863Z,19.70
2018-03-31T02:53:58.001Z,19.70
2018-03-31T02:56:25.166Z,19.70
2018-03-31T02:58:52.730Z,19.70
2018-03-31T03:01:19.998Z,19.70
2018-03-31T03:03:47.204Z,19.70
2018-03-31T03:06:14.377Z,19.70
2018-03-31T03:08:41.434Z,19.70
2018-03-31T03:11:08.756Z,19.70
2018-03-31T03:13:35.947Z,19.70
2018-03-31T03:16:03.181Z,19.70
2018-03-31T03:18:30.435Z,19.70
2018-03-31T03:20:57.598Z,19.70
2018-03-31T03:23:24.826Z,19.70
2018-03-31T03:25:52.003Z,19.60
2018-03-31T03:28:19.326Z,19.70
2018-03-31T03:30:46.590Z,19.60
2018-03-31T03:33:13.851Z,19.60
2018-03-31T03:35:40.999Z,19.60
2018-03-31T03:38:08.150Z,19.60
2018-03-31T03:40:35.511Z,19.60
2018-03-31T03:43:02.734Z,19.60
2018-03-31T03:45:29.907Z,19.60
2018-03-31T03:47:57.247Z,19.60
2018-03-31T03:50:24.521Z,19.60
2018-03-31T03:52:51.607Z,19.60
2018-03-31T03:55:18.889Z,19.60
2018-03-31T03:57:46.451Z,19.60
2018-03-31T04:00:13.936Z,19.60
2018-03-31T04:02:41.276Z,19.60
2018-03-31T04:05:08.545Z,19.60
2018-03-31T04:07:35.612Z,19.60
2018-03-31T04:10:03.443Z,19.60
2018-03-31T04:12:30.684Z,19.60
2018-03-31T04:14:57.821Z,19.60
2018-03-31T04:17:25.020Z,19.60
2018-03-31T04:19:52.956Z,19.60
2018-03-31T04:22:20.087Z,19.50
2018-03-31T04:24:47.350Z,19.60
2018-03-31T04:27:14.537Z,19.60
2018-03-31T04:29:41.759Z,19.60
2018-03-31T04:32:08.886Z,19.60
2018-03-31T04:34:36.275Z,19.50
2018-03-31T04:37:03.426Z,19.50
2018-03-31T04:39:30.575Z,19.50
2018-03-31T04:41:57.754Z,19.50
2018-03-31T04:44:25.897Z,19.50
2018-03-31T04:46:53.431Z,19.50
2018-03-31T04:49:20.807Z,19.50
2018-03-31T04:51:47.938Z,19.50
2018-03-31T04:54:15.093Z,19.50
2018-03-31T04:56:42.287Z,19.50
2018-03-31T04:59:10.197Z,19.50
2018-03-31T05:01:37.816Z,19.50
2018-03-31T05:04:05.636Z,19.50
2018-03-31T05:06:32.879Z,19.50
2018-03-31T05:09:00.055Z,19.50
2018-03-31T05:11:27.399Z,19.50
2018-03-31T05:13:54.474Z,19.50
2018-03-31T05:16:21.510Z,19.50
2018-03-31T05:18:48.566Z,19.50
2018-03-31T05:21:16.043Z,19.50
2018-03-31T05:23:43.127Z,19.50
2018-03-31T05:26:10.326Z,19.50
2018-03-31T05:28:37.514Z,19.40
2018-03-31T05:31:04.704Z,19.50
2018-03-31T05:33:31.750Z,19.50
2018-03-31T05:35:59.155Z,19.40
2018-03-31T05:38:27.192Z,19.50
2018-03-31T05:40:54.430Z,19.40
2018-03-31T05:43:21.762Z,19.50
2018-03-31T05:45:48.975Z,19.50
2018-03-31T05:48:16.926Z,19.50
2018-03-31T05:50:43.983Z,19.40
2018-03-31T05:53:11.779Z,19.50
2018-03-31T05:55:38.950Z,19.40
2018-03-31T05:58:06.248Z,19.50
2018-03-31T06:00:34.168Z,19.40
2018-03-31T06:03:01.615Z,19.50
2018-03-31T06:05:28.827Z,19.50
2018-03-31T06:07:56.639Z,19.50
2018-03-31T06:10:23.746Z,19.40
2018-03-31T06:12:51.651Z,19.50
2018-03-31T06:15:18.860Z,19.50
2018-03-31T06:17:46.723Z,19.50
2018-03-31T06:20:14.674Z,19.60
2018-03-31T06:22:41.917Z,19.60
2018-03-31T06:25:08.981Z,19.60
2018-03-31T06:27:36.063Z,19.70
2018-03-31T06:30:03.091Z,19.70
2018-03-31T06:32:31.219Z,19.70
2018-03-31T06:34:58.456Z,19.70
2018-03-31T06:37:25.709Z,19.70
2018-03-31T06:39:52.886Z,19.70
2018-03-31T06:42:19.965Z,19.80
2018-03-31T06:44:48.079Z,19.80
2018-03-31T06:47:15.158Z,19.80
2018-03-31T06:49:42.352Z,19.80
2018-03-31T06:52:09.457Z,19.80
2018-03-31T06:54:36.674Z,19.80
2018-03-31T06:57:03.828Z,19.80
2018-03-31T06:59:31.091Z,19.90
2018-03-31T07:01:58.568Z,19.90
2018-03-31T07:04:26.238Z,19.90
2018-03-31T07:06:53.348Z,19.90
2018-03-31T07:09:20.568Z,19.90
2018-03-31T07:11:47.775Z,19.90
2018-03-31T07:14:14.986Z,19.90
2018-03-31T07:16:42.247Z,19.90
2018-03-31T07:19:09.303Z,20.00
2018-03-31T07:21:36.484Z,19.90
2018-03-31T07:24:03.655Z,20.00
2018-03-31T07:26:31.808Z,20.00
2018-03-31T07:28:59.229Z,20.00
2018-03-31T07:31:26.269Z,20.00
2018-03-31T07:33:53.398Z,20.00
2018-03-31T07:36:20.480Z,20.00
2018-03-31T07:38:47.684Z,20.00
2018-03-31T07:41:15.694Z,20.00
2018-03-31T07:43:43.007Z,20.00
2018-03-31T07:46:11.008Z,20.10
2018-03-31T07:48:38.454Z,20.00
2018-03-31T07:51:05.548Z,20.10
2018-03-31T07:53:32.676Z,20.10
2018-03-31T07:55:59.747Z,20.10
2018-03-31T07:58:40.788Z,20.10
2018-03-31T08:01:07.836Z,20.10
2018-03-31T08:03:34.938Z,20.10
2018-03-31T08:06:03.588Z,20.10
2018-03-31T08:08:30.663Z,20.10
2018-03-31T08:10:58.555Z,20.10
2018-03-31T08:13:25.851Z,20.10
2018-03-31T08:15:53.091Z,20.20
2018-03-31T08:18:20.196Z,20.20
2018-03-31T08:20:48.078Z,20.30
2018-03-31T08:23:15.265Z,20.20
2018-03-31T08:25:49.960Z,20.30
2018-03-31T08:28:17.142Z,20.30
2018-03-31T08:30:44.423Z,20.30
2018-03-31T08:33:11.548Z,20.40
2018-03-31T08:35:38.799Z,20.40
2018-03-31T08:38:05.881Z,20.40
2018-03-31T08:40:33.825Z,20.50
2018-03-31T08:43:00.889Z,20.40
2018-03-31T08:45:28.172Z,20.50
2018-03-31T12:46:34.914Z,20.90
2018-03-31T12:49:02.132Z,24.10
2018-03-31T12:51:29.211Z,22.70
2018-03-31T13:03:18.950Z,20.10
2018-03-31T13:05:46.291Z,17.00
2018-03-31T13:08:13.891Z,14.60
2018-03-31T13:10:41.171Z,13.50
2018-03-31T13:13:08.441Z,13.20
2018-03-31T13:15:37.300Z,13.10
2018-03-31T13:18:05.126Z,13.10
2018-03-31T13:20:32.209Z,13.10
2018-03-31T13:23:00.056Z,12.70
2018-03-31T13:25:27.114Z,12.70
2018-03-31T13:27:54.201Z,12.50
2018-03-31T13:30:21.269Z,12.60
2018-03-31T13:32:48.346Z,13.70
2018-03-31T13:35:15.405Z,15.10
2018-03-31T13:37:42.580Z,15.60
2018-03-31T13:40:10.469Z,15.50
2018-03-31T13:42:37.558Z,15.40
2018-03-31T13:45:05.408Z,17.00
2018-03-31T13:47:32.563Z,16.90
2018-03-31T13:49:59.675Z,17.70
2018-03-31T13:52:27.512Z,17.60
2018-03-31T13:54:54.565Z,17.60
2018-03-31T13:57:22.406Z,18.70
2018-03-31T13:59:49.465Z,18.70
2018-03-31T14:02:16.759Z,18.80
2018-03-31T14:04:43.819Z,19.00
2018-03-31T14:07:13.964Z,19.30
2018-03-31T14:09:41.088Z,20.00
2018-03-31T14:12:08.229Z,20.20
2018-03-31T14:14:35.351Z,20.10
2018-03-31T14:17:03.409Z,21.30
2018-03-31T14:19:30.516Z,21.30
2018-03-31T14:21:57.635Z,21.10
2018-03-31T14:24:25.648Z,21.80
2018-03-31T14:26:52.765Z,21.80
2018-03-31T14:29:19.870Z,20.90
2018-03-31T14:31:47.024Z,21.20
2018-03-31T14:34:14.124Z,21.30
2018-03-31T14:36:41.193Z,20.70
2018-03-31T14:39:08.282Z,19.40
2018-03-31T14:41:35.343Z,18.20
2018-03-31T14:44:03.235Z,16.70
2018-03-31T14:46:30.482Z,16.60
2018-03-31T14:48:57.726Z,15.80
2018-03-31T14:51:24.844Z,15.00
2018-03-31T14:53:52.042Z,14.70
2018-03-31T14:56:19.142Z,14.50
2018-03-31T14:58:46.234Z,14.30
2018-03-31T15:01:13.453Z,14.20
2018-03-31T15:03:40.648Z,14.30
2018-03-31T15:06:07.879Z,14.60
2018-03-31T15:08:35.303Z,14.80
2018-03-31T15:11:03.264Z,15.10
2018-03-31T15:13:30.371Z,15.10
2018-03-31T15:15:57.535Z,15.30
2018-03-31T15:18:24.699Z,15.50
2018-03-31T15:20:51.846Z,15.40
2018-03-31T15:23:18.964Z,15.10
2018-03-31T15:25:46.086Z,15.00
2018-03-31T15:28:13.954Z,14.70
2018-03-31T15:30:41.884Z,14.60
2018-03-31T15:33:08.996Z,14.60
2018-03-31T15:35:36.096Z,14.60
2018-03-31T15:38:03.255Z,14.60
2018-03-31T15:40:30.389Z,14.70
2018-03-31T15:42:57.521Z,14.80
2018-03-31T15:45:24.877Z,14.90
2018-03-31T15:47:52.018Z,15.10
2018-03-31T15:50:21.210Z,15.10
2018-03-31T15:52:48.331Z,15.20
2018-03-31T15:55:16.218Z,15.10
2018-03-31T15:57:43.406Z,15.10
2018-03-31T16:00:10.522Z,15.00
2018-03-31T16:02:37.893Z,14.80
2018-03-31T16:05:05.031Z,14.70
2018-03-31T16:07:32.163Z,14.50
2018-03-31T16:10:00.035Z,14.20
2018-03-31T16:12:27.164Z,14.20
2018-03-31T16:14:54.324Z,14.20
2018-03-31T16:17:21.479Z,14.10
2018-03-31T16:19:48.614Z,14.10
2018-03-31T16:22:15.758Z,14.30
2018-03-31T16:24:42.869Z,14.60
2018-03-31T16:27:10.052Z,14.70
2018-03-31T16:29:37.170Z,14.90
2018-03-31T16:32:04.234Z,14.90
2018-03-31T16:34:31.306Z,14.80
2018-03-31T16:36:58.362Z,14.70
2018-03-31T16:39:25.486Z,14.60
2018-03-31T16:41:52.611Z,14.50
2018-03-31T16:44:19.809Z,14.20
2018-03-31T16:46:46.912Z,14.10
2018-03-31T16:49:14.029Z,14.00
2018-03-31T16:51:41.147Z,13.90
2018-03-31T16:54:10.364Z,13.90
2018-03-31T16:56:38.290Z,13.70
2018-03-31T16:59:05.416Z,13.70
2018-03-31T17:01:32.514Z,13.60
2018-03-31T17:03:59.690Z,13.60
2018-03-31T17:06:26.816Z,13.50
2018-03-31T17:08:53.933Z,13.40
2018-03-31T17:11:21.087Z,13.40
2018-03-31T17:13:48.250Z,13.30
2018-03-31T17:16:15.405Z,13.10
2018-03-31T17:18:43.917Z,13.10
2018-03-31T17:21:11.078Z,13.00
2018-03-31T17:23:38.969Z,12.80
2018-03-31T17:26:06.199Z,12.80
2018-03-31T17:28:34.173Z,12.70
2018-03-31T17:31:02.109Z,12.60
2018-03-31T17:33:29.230Z,12.50
2018-03-31T17:35:57.176Z,12.50
2018-03-31T17:38:24.303Z,12.40
2018-03-31T17:40:52.227Z,12.20
2018-03-31T17:43:19.360Z,12.20
2018-03-31T17:45:46.511Z,11.90
2018-03-31T17:48:15.411Z,11.70
2018-03-31T17:50:42.622Z,11.50
2018-03-31T17:53:10.514Z,11.10
2018-03-31T17:55:37.662Z,11.10
2018-03-31T17:58:05.270Z,11.10
2018-03-31T18:00:32.412Z,11.10
2018-03-31T18:02:59.534Z,11.10
2018-03-31T18:05:26.704Z,11.10
2018-03-31T18:07:53.800Z,11.00
2018-03-31T18:10:21.755Z,11.00
2018-03-31T18:12:49.677Z,10.90
2018-03-31T18:15:16.773Z,10.80
2018-03-31T18:17:44.688Z,10.90
2018-03-31T18:20:11.820Z,10.90
2018-03-31T18:22:38.945Z,10.80
2018-03-31T18:25:07.268Z,10.50
2018-03-31T18:27:34.774Z,10.50
2018-03-31T18:30:02.615Z,10.20
2018-03-31T18:32:33.369Z,10.20
2018-03-31T18:35:00.591Z,10.20
2018-03-31T18:37:27.702Z,10.20
2018-03-31T18:39:54.880Z,10.20
2018-03-31T18:42:21.967Z,10.10
2018-03-31T18:44:49.064Z,10.10
2018-03-31T18:47:16.185Z,10.00
2018-03-31T18:49:44.450Z,9.90
2018-03-31T18:52:12.402Z,9.80
2018-03-31T18:54:39.535Z,9.80
2018-03-31T18:57:06.685Z,9.70
2018-03-31T18:59:33.778Z,9.70
2018-03-31T19:02:01.610Z,9.50
2018-03-31T19:04:28.656Z,9.40
2018-03-31T19:06:55.759Z,9.40
2018-03-31T19:09:22.866Z,9.40
2018-03-31T19:11:49.906Z,9.30
2018-03-31T19:14:16.953Z,9.30
2018-03-31T19:16:49.631Z,9.10
2018-03-31T19:19:16.727Z,8.80
2018-03-31T19:21:43.785Z,8.60
2018-03-31T19:24:10.867Z,8.60
2018-03-31T19:26:37.914Z,8.60
2018-03-31T19:29:04.991Z,8.70
2018-03-31T19:31:32.042Z,8.70
2018-03-31T19:33:59.124Z,8.70
2018-03-31T19:36:26.168Z,8.70
2018-03-31T19:38:53.242Z,8.60
2018-03-31T19:41:20.283Z,8.50
2018-03-31T19:43:47.337Z,8.30
2018-03-31T19:46:14.383Z,8.50
2018-03-31T19:48:41.454Z,8.50
2018-03-31T19:51:08.522Z,8.50
2018-03-31T19:53:35.622Z,8.30
2018-03-31T19:56:02.684Z,8.10
2018-03-31T19:58:29.746Z,8.00
2018-03-31T20:00:57.569Z,8.30
2018-03-31T20:03:24.673Z,8.30
2018-03-31T20:05:51.871Z,8.70
2018-03-31T20:08:19.220Z,8.80
2018-03-31T20:10:46.725Z,8.90
2018-03-31T20:13:14.687Z,8.80
2018-03-31T20:15:41.790Z,8.70
2018-03-31T20:18:08.853Z,8.80
2018-03-31T20:20:37.895Z,8.80
2018-03-31T20:23:04.964Z,8.70
2018-03-31T20:25:32.066Z,8.70
2018-03-31T20:27:59.122Z,8.70
2018-03-31T20:30:26.203Z,8.70
2018-03-31T20:32:53.269Z,8.60
2018-03-31T20:35:21.125Z,8.50
2018-03-31T20:37:48.231Z,8.50
2018-03-31T20:40:16.023Z,8.60
2018-03-31T20:42:43.076Z,8.60
2018-03-31T20:45:10.171Z,8.40
2018-03-31T20:47:37.478Z,8.10
2018-03-31T20:50:05.330Z,8.10
2018-03-31T20:52:34.473Z,8.30
2018-03-31T20:55:01.570Z,8.30
2018-03-31T20:57:28.674Z,8.40
2018-03-31T20:59:56.480Z,8.60
2018-03-31T21:02:23.651Z,8.50
2018-03-31T21:04:50.796Z,8.50
2018-03-31T21:07:17.939Z,8.50
2018-03-31T21:09:45.066Z,8.50
2018-03-31T21:12:12.286Z,8.50
2018-03-31T21:14:40.150Z,8.20
2018-03-31T21:17:10.999Z,8.20
2018-03-31T21:19:38.857Z,8.30
2018-03-31T21:22:06.759Z,8.30
2018-03-31T21:24:33.850Z,8.30
2018-03-31T21:27:00.968Z,8.20
2018-03-31T21:29:28.090Z,8.20
2018-03-31T21:31:55.188Z,8.20
2018-03-31T21:34:22.298Z,8.30
2018-03-31T21:36:49.433Z,8.30
2018-03-31T21:39:16.803Z,8.40
2018-03-31T21:41:44.283Z,8.40
2018-03-31T21:44:11.373Z,8.40
2018-03-31T21:46:38.552Z,8.40
2018-03-31T21:49:06.037Z,8.40
2018-03-31T21:51:33.157Z,8.40
2018-03-31T21:54:00.624Z,8.40
2018-03-31T21:56:28.707Z,8.50
2018-03-31T21:58:55.986Z,8.50
2018-03-31T22:01:23.242Z,8.50
2018-03-31T22:03:50.379Z,8.50
2018-03-31T22:06:17.501Z,8.40
2018-03-31T22:08:44.609Z,8.20
2018-03-31T22:11:11.690Z,8.00
2018-03-31T22:13:45.231Z,8.10
2018-03-31T22:16:12.272Z,8.10
2018-03-31T22:18:39.350Z,8.20
2018-03-31T22:21:06.399Z,8.20
2018-03-31T22:23:33.483Z,8.10
2018-03-31T22:26:01.301Z,8.30
2018-03-31T22:28:28.369Z,8.30
2018-03-31T22:30:55.414Z,8.30
2018-03-31T22:33:22.709Z,8.30
2018-03-31T22:35:49.794Z,8.30
2018-03-31T22:38:16.903Z,8.30
2018-03-31T22:40:43.980Z,8.20
2018-03-31T22:43:11.034Z,8.00
2018-03-31T22:45:38.155Z,7.90
2018-03-31T22:48:05.255Z,7.60
2018-03-31T22:50:32.345Z,7.50
2018-03-31T22:53:00.207Z,7.80
2018-03-31T22:55:27.339Z,7.80
2018-03-31T22:57:55.280Z,7.80
2018-03-31T23:00:22.822Z,7.70
2018-03-31T23:02:49.889Z,7.70
2018-03-31T23:05:17.070Z,7.70
2018-03-31T23:07:44.155Z,7.80
2018-03-31T23:10:11.316Z,7.90
2018-03-31T23:12:38.488Z,8.00
2018-03-31T23:15:05.775Z,8.00
2018-03-31T23:17:33.592Z,7.90
2018-03-31T23:20:00.673Z,7.90
2018-03-31T23:22:27.714Z,7.80
2018-03-31T23:24:54.821Z,7.80
2018-03-31T23:27:21.853Z,7.90
2018-03-31T23:29:48.907Z,8.00
2018-03-31T23:32:15.983Z,7.90
2018-03-31T23:34:43.019Z,7.80
2018-03-31T23:37:10.101Z,7.70
2018-03-31T23:39:37.206Z,7.80
2018-03-31T23:42:04.271Z,7.90
2018-03-31T23:44:31.320Z,8.00
2018-03-31T23:46:58.399Z,8.00
2018-03-31T23:49:25.450Z,8.00
2018-03-31T23:51:52.531Z,8.10
2018-03-31T23:54:20.353Z,8.00
2018-03-31T23:56:47.425Z,8.00
2018-03-31T23:59:14.469Z,8.10
